Time;durP1;ratioP1;P1;durP2;ratioP2;P2;SDS_P1;SDS_P2;PMS_P1;PMS_P2;Temp;Humidity;BMP_temperature;BMP_pressure;BME280_temperature;BME280_humidity;BME280_pressure;Samples;Min_cycle;Max_cycle;Signal;HPM_P1;HPM_P2
2021/09/24 00:00:31;;;;;;;12.63;3.33;;;16.50;91.60;;;;;;5015287;28;20080;-87
2021/09/24 00:02:57;;;;;;;9.98;3.67;;;16.50;91.60;;;;;;5015037;28;20049;-87
2021/09/24 00:05:23;;;;;;;16.50;4.25;;;16.50;91.60;;;;;;5020851;28;20025;-87
2021/09/24 00:07:48;;;;;;;17.35;3.95;;;16.50;91.70;;;;;;5018387;28;20125;-87
2021/09/24 00:10:16;;;;;;;14.65;3.85;;;16.50;91.80;;;;;;5018832;28;20021;-87
2021/09/24 00:12:41;;;;;;;17.08;4.13;;;16.50;91.70;;;;;;5018094;28;20037;-86
2021/09/24 00:15:13;;;;;;;14.82;4.07;;;16.50;91.70;;;;;;5025324;28;20026;-85
2021/09/24 00:17:39;;;;;;;11.57;3.53;;;16.50;91.80;;;;;;5025943;28;20018;-87
2021/09/24 00:20:06;;;;;;;14.77;4.63;;;16.50;91.80;;;;;;5017585;28;20072;-86
2021/09/24 00:22:32;;;;;;;10.38;3.78;;;16.50;91.70;;;;;;5017415;28;20080;-87
2021/09/24 00:25:00;;;;;;;16.50;4.28;;;16.50;91.70;;;;;;5027630;28;20014;-87
2021/09/24 00:27:26;;;;;;;14.73;3.83;;;16.50;91.80;;;;;;5017708;28;20037;-86
2021/09/24 00:29:51;;;;;;;12.27;4.13;;;16.50;91.90;;;;;;5017915;28;20033;-87
2021/09/24 00:32:17;;;;;;;12.60;3.80;;;16.50;91.80;;;;;;5018279;28;20018;-88
2021/09/24 00:34:44;;;;;;;11.13;3.50;;;16.50;91.80;;;;;;5017543;28;20018;-87
2021/09/24 00:37:10;;;;;;;13.52;4.30;;;16.50;92.00;;;;;;5017338;28;20458;-87
2021/09/24 00:39:35;;;;;;;9.32;3.47;;;16.40;91.60;;;;;;5017365;28;20026;-87
2021/09/24 00:42:01;;;;;;;14.32;4.00;;;16.50;91.60;;;;;;5016279;28;20026;-88
2021/09/24 00:44:28;;;;;;;15.48;4.13;;;16.40;91.60;;;;;;5017740;28;20537;-85
2021/09/24 00:46:55;;;;;;;12.00;3.80;;;16.40;91.60;;;;;;5001246;28;20034;-85
2021/09/24 00:49:21;;;;;;;11.13;3.80;;;16.40;91.60;;;;;;5017559;28;20479;-87
2021/09/24 00:51:47;;;;;;;15.07;4.20;;;16.40;91.60;;;;;;5018145;28;20032;-88
2021/09/24 00:54:13;;;;;;;18.00;4.35;;;16.40;91.60;;;;;;5019866;28;20425;-88
2021/09/24 00:56:38;;;;;;;12.40;3.97;;;16.40;91.60;;;;;;5032604;28;20018;-87
2021/09/24 00:59:04;;;;;;;11.88;4.57;;;16.40;91.60;;;;;;5039444;28;20014;-86
2021/09/24 01:01:30;;;;;;;14.25;3.92;;;16.40;91.70;;;;;;5039594;28;20034;-86
2021/09/24 01:03:55;;;;;;;14.57;4.15;;;16.40;91.70;;;;;;5038951;28;20014;-86
2021/09/24 01:06:21;;;;;;;15.48;4.63;;;16.40;91.70;;;;;;5025720;28;20045;-86
2021/09/24 01:08:47;;;;;;;11.93;4.45;;;16.40;91.80;;;;;;5016707;28;20050;-85
2021/09/24 01:11:13;;;;;;;14.93;4.15;;;16.40;91.80;;;;;;5016412;28;20018;-86
2021/09/24 01:13:38;;;;;;;14.30;3.88;;;16.40;91.80;;;;;;5016917;28;20109;-86
2021/09/24 01:16:04;;;;;;;13.32;4.30;;;16.40;91.80;;;;;;5016685;28;20025;-86
2021/09/24 01:18:30;;;;;;;15.85;4.45;;;16.40;91.70;;;;;;5017604;28;20030;-85
2021/09/24 01:20:56;;;;;;;16.58;4.50;;;16.40;91.70;;;;;;5021413;28;20036;-85
2021/09/24 01:23:23;;;;;;;10.55;3.97;;;16.40;91.90;;;;;;5037430;28;20093;-85
2021/09/24 01:25:49;;;;;;;13.27;4.13;;;16.40;91.80;;;;;;5018910;28;20037;-86
2021/09/24 01:28:14;;;;;;;13.80;4.65;;;16.30;91.80;;;;;;5017117;28;20512;-87
2021/09/24 01:30:40;;;;;;;17.40;4.75;;;16.40;91.80;;;;;;5021738;28;20022;-87
2021/09/24 01:33:06;;;;;;;19.27;5.22;;;16.30;92.10;;;;;;5032071;28;20026;-85
2021/09/24 01:35:31;;;;;;;16.63;4.43;;;16.30;91.80;;;;;;5032684;28;20029;-84
2021/09/24 01:37:57;;;;;;;17.80;5.20;;;16.30;91.80;;;;;;5033616;28;20364;-85
2021/09/24 01:40:23;;;;;;;16.83;5.65;;;16.30;91.70;;;;;;5019989;28;20022;-86
2021/09/24 01:42:53;;;;;;;12.18;4.20;;;16.30;91.80;;;;;;5016055;28;20128;-86
2021/09/24 01:45:20;;;;;;;13.73;5.88;;;16.30;91.80;;;;;;5016377;28;20041;-85
2021/09/24 01:47:46;;;;;;;14.70;4.53;;;16.30;91.80;;;;;;5015751;28;20030;-87
2021/09/24 01:50:13;;;;;;;20.30;4.95;;;16.30;91.80;;;;;;5015548;28;20022;-86
2021/09/24 01:52:40;;;;;;;10.15;3.85;;;16.30;91.80;;;;;;5019174;28;20485;-86
2021/09/24 01:55:07;;;;;;;14.32;4.63;;;16.30;91.80;;;;;;5029641;28;20528;-87
2021/09/24 01:57:32;;;;;;;18.83;5.70;;;16.30;91.90;;;;;;5015304;28;20022;-86
2021/09/24 01:59:58;;;;;;;18.40;5.47;;;16.30;92.00;;;;;;5015094;28;20037;-86
2021/09/24 02:02:23;;;;;;;11.35;4.07;;;16.30;91.90;;;;;;5015226;28;20025;-85
2021/09/24 02:04:49;;;;;;;16.17;5.38;;;16.20;91.80;;;;;;5015169;28;20022;-84
2021/09/24 02:07:15;;;;;;;16.63;5.25;;;16.20;91.80;;;;;;5015576;28;20026;-86
2021/09/24 02:09:41;;;;;;;10.63;5.18;;;16.20;91.90;;;;;;5015385;28;20022;-87
2021/09/24 02:12:07;;;;;;;14.55;4.50;;;16.20;91.90;;;;;;5017268;28;20105;-86
2021/09/24 02:14:33;;;;;;;15.70;4.65;;;16.20;91.90;;;;;;5031160;28;20026;-86
2021/09/24 02:16:59;;;;;;;14.82;5.10;;;16.20;91.90;;;;;;5016474;28;20033;-86
2021/09/24 02:19:24;;;;;;;13.90;5.20;;;16.20;92.00;;;;;;5015108;28;20072;-84
2021/09/24 02:21:50;;;;;;;16.45;5.53;;;16.20;92.00;;;;;;5014974;28;20029;-84
2021/09/24 02:24:16;;;;;;;11.90;5.10;;;16.20;92.00;;;;;;5013962;28;20034;-84
2021/09/24 02:26:41;;;;;;;18.60;5.35;;;16.20;92.00;;;;;;5013435;28;20038;-85
2021/09/24 02:29:07;;;;;;;17.45;5.72;;;16.20;92.00;;;;;;5014189;28;20447;-84
2021/09/24 02:31:33;;;;;;;15.40;5.40;;;16.20;92.10;;;;;;5015643;28;20112;-85
2021/09/24 02:34:01;;;;;;;15.10;6.00;;;16.20;92.10;;;;;;5013568;28;20025;-85
2021/09/24 02:36:27;;;;;;;18.05;6.85;;;16.10;92.10;;;;;;5014062;28;20358;-85
2021/09/24 02:38:52;;;;;;;15.30;6.15;;;16.20;92.10;;;;;;5014448;28;20494;-85
2021/09/24 02:41:18;;;;;;;14.27;6.60;;;16.20;92.10;;;;;;5014555;28;20014;-84
2021/09/24 02:43:44;;;;;;;16.48;6.32;;;16.10;92.10;;;;;;5015843;28;20040;-84
2021/09/24 02:46:10;;;;;;;17.42;5.82;;;16.20;92.40;;;;;;5017151;28;20029;-84
2021/09/24 02:48:36;;;;;;;17.65;6.90;;;16.20;92.20;;;;;;5034362;28;20014;-84
2021/09/24 02:51:02;;;;;;;15.88;6.57;;;16.20;92.20;;;;;;5034459;28;20097;-84
2021/09/24 02:53:27;;;;;;;15.85;6.82;;;16.20;92.20;;;;;;5036614;28;20090;-85
2021/09/24 02:55:53;;;;;;;15.80;6.70;;;16.20;92.20;;;;;;5034683;28;20026;-84
2021/09/24 02:58:18;;;;;;;18.08;8.02;;;16.20;92.20;;;;;;5015760;28;20427;-85
2021/09/24 03:00:44;;;;;;;18.83;7.10;;;16.20;92.20;;;;;;5014824;28;20025;-85
2021/09/24 03:03:10;;;;;;;23.67;7.93;;;16.20;92.30;;;;;;5013878;28;20029;-86
2021/09/24 03:05:35;;;;;;;17.42;7.13;;;16.20;92.30;;;;;;5014103;28;20410;-85
2021/09/24 03:08:02;;;;;;;14.65;7.13;;;16.20;92.40;;;;;;5014156;28;20041;-86
2021/09/24 03:10:27;;;;;;;19.63;8.43;;;16.20;92.30;;;;;;5014922;28;20025;-85
2021/09/24 03:12:53;;;;;;;17.75;7.30;;;16.20;92.30;;;;;;5014724;28;20022;-84
2021/09/24 03:15:19;;;;;;;18.15;8.48;;;16.20;92.30;;;;;;5014713;28;20026;-85
2021/09/24 03:17:45;;;;;;;16.92;7.82;;;16.20;92.30;;;;;;5013823;28;20025;-84
2021/09/24 03:20:11;;;;;;;23.77;8.93;;;16.20;92.30;;;;;;5018232;28;20517;-86
2021/09/24 03:22:37;;;;;;;15.77;7.55;;;16.20;92.30;;;;;;5029684;28;20029;-86
2021/09/24 03:25:03;;;;;;;20.55;8.07;;;16.20;92.30;;;;;;5034392;28;20034;-85
2021/09/24 03:27:29;;;;;;;17.35;7.63;;;16.10;92.30;;;;;;5029684;28;20074;-86
2021/09/24 03:29:55;;;;;;;11.85;6.53;;;16.10;92.30;;;;;;5016462;28;20025;-84
2021/09/24 03:32:20;;;;;;;19.13;9.07;;;16.10;92.30;;;;;;5018089;28;20030;-87
2021/09/24 03:34:47;;;;;;;22.13;7.53;;;16.10;92.30;;;;;;5014869;28;20030;-86
2021/09/24 03:37:13;;;;;;;19.02;8.20;;;16.10;92.40;;;;;;5013111;28;20120;-86
2021/09/24 03:39:38;;;;;;;16.40;7.93;;;16.10;92.40;;;;;;5014274;28;20506;-86
2021/09/24 03:42:04;;;;;;;19.58;8.43;;;16.10;92.40;;;;;;5012832;28;20033;-86
2021/09/24 03:44:30;;;;;;;16.60;9.43;;;16.00;92.40;;;;;;5013634;28;20022;-84
2021/09/24 03:46:56;;;;;;;19.17;9.00;;;16.00;92.40;;;;;;5012890;28;20030;-85
2021/09/24 03:49:23;;;;;;;18.13;7.82;;;16.00;92.50;;;;;;5012813;28;20033;-85
2021/09/24 03:51:49;;;;;;;19.75;10.40;;;15.90;92.50;;;;;;5013111;28;20482;-85
2021/09/24 03:54:14;;;;;;;15.80;10.32;;;15.80;92.50;;;;;;5012856;28;20033;-86
2021/09/24 03:56:43;;;;;;;22.83;12.18;;;15.90;92.70;;;;;;5016563;28;20026;-84
2021/09/24 03:59:09;;;;;;;24.05;12.68;;;15.90;92.80;;;;;;5015604;28;20035;-86
2021/09/24 04:01:35;;;;;;;27.95;12.98;;;15.80;92.90;;;;;;5018529;28;20006;-84
2021/09/24 04:04:04;;;;;;;22.65;13.20;;;15.80;92.90;;;;;;5025883;28;20092;-85
2021/09/24 04:06:30;;;;;;;27.48;15.98;;;15.80;93.00;;;;;;5014352;28;20045;-85
2021/09/24 04:08:56;;;;;;;28.10;17.15;;;15.80;93.10;;;;;;5013604;28;20026;-83
2021/09/24 04:11:22;;;;;;;26.52;17.80;;;15.80;93.20;;;;;;5013131;28;20030;-85
2021/09/24 04:13:48;;;;;;;27.38;15.57;;;15.80;93.10;;;;;;5013961;28;20467;-84
2021/09/24 04:16:16;;;;;;;31.60;20.48;;;15.80;93.20;;;;;;5013151;28;20022;-86
2021/09/24 04:18:42;;;;;;;38.40;23.50;;;15.70;93.30;;;;;;5012729;28;20065;-85
2021/09/24 04:21:08;;;;;;;38.75;22.85;;;15.70;93.40;;;;;;5012325;28;20080;-86
2021/09/24 04:23:34;;;;;;;35.55;23.05;;;15.70;93.40;;;;;;5012760;28;20026;-86
2021/09/24 04:26:00;;;;;;;37.10;23.50;;;15.70;93.60;;;;;;5012953;28;20045;-84
2021/09/24 04:28:26;;;;;;;43.60;25.33;;;15.70;93.70;;;;;;5012263;28;20026;-85
2021/09/24 04:30:52;;;;;;;42.83;25.90;;;15.70;93.80;;;;;;5012593;28;20442;-85
2021/09/24 04:33:17;;;;;;;49.15;28.90;;;15.70;93.80;;;;;;5012977;28;20022;-84
2021/09/24 04:35:43;;;;;;;44.25;25.48;;;15.70;93.90;;;;;;5016212;28;20026;-85
2021/09/24 04:38:10;;;;;;;44.85;26.00;;;15.70;93.90;;;;;;5032019;28;20022;-85
2021/09/24 04:40:36;;;;;;;48.53;29.35;;;15.60;93.90;;;;;;5036527;28;20014;-85
2021/09/24 04:43:02;;;;;;;57.53;32.75;;;15.60;94.30;;;;;;5034904;28;20040;-84
2021/09/24 04:45:28;;;;;;;53.13;32.42;;;15.60;94.00;;;;;;5036139;28;20011;-86
2021/09/24 04:47:53;;;;;;;65.32;35.78;;;15.60;94.10;;;;;;5020721;28;20100;-85
2021/09/24 04:50:19;;;;;;;67.65;38.63;;;15.60;94.20;;;;;;5014409;28;20459;-86
2021/09/24 04:52:45;;;;;;;80.03;40.40;;;15.60;94.30;;;;;;5016791;28;20029;-86
2021/09/24 04:55:11;;;;;;;78.03;40.38;;;15.60;94.40;;;;;;5016122;28;20018;-84
2021/09/24 04:57:37;;;;;;;80.45;41.65;;;15.60;94.50;;;;;;5016701;28;20041;-85
2021/09/24 05:00:06;;;;;;;78.18;40.60;;;15.60;94.60;;;;;;5016953;28;20026;-85
2021/09/24 05:02:32;;;;;;;72.85;39.10;;;15.60;94.70;;;;;;5016784;28;20405;-84
2021/09/24 05:04:58;;;;;;;89.25;43.38;;;15.60;94.50;;;;;;5016919;28;20106;-86
2021/09/24 05:07:23;;;;;;;117.68;47.35;;;15.60;94.60;;;;;;5018953;28;20026;-85
2021/09/24 05:09:49;;;;;;;80.85;44.92;;;15.60;94.80;;;;;;5020774;28;20029;-83
2021/09/24 05:12:14;;;;;;;142.07;52.17;;;15.60;94.90;;;;;;5035449;28;20033;-83
2021/09/24 05:14:41;;;;;;;104.95;49.05;;;15.60;94.90;;;;;;5038827;28;20025;-86
2021/09/24 05:17:07;;;;;;;106.65;47.08;;;15.60;95.00;;;;;;5010288;28;20095;-85
2021/09/24 05:19:35;;;;;;;108.30;49.22;;;15.60;95.10;;;;;;5017799;28;20077;-85
2021/09/24 05:22:00;;;;;;;115.32;50.42;;;15.70;95.10;;;;;;5016237;28;20017;-85
2021/09/24 05:24:26;;;;;;;100.90;50.15;;;15.70;95.20;;;;;;5025051;28;20045;-84
2021/09/24 05:26:52;;;;;;;114.05;49.92;;;15.70;95.20;;;;;;5030769;28;20471;-86
2021/09/24 05:29:19;;;;;;;158.57;57.47;;;15.70;95.20;;;;;;5017426;28;20072;-83
2021/09/24 05:31:46;;;;;;;142.77;54.60;;;15.80;95.30;;;;;;5016101;28;20033;-84
2021/09/24 05:34:12;;;;;;;134.82;53.13;;;15.70;95.30;;;;;;5016078;28;20030;-85
2021/09/24 05:36:37;;;;;;;197.43;57.13;;;15.80;95.40;;;;;;5015799;28;20018;-83
2021/09/24 05:39:03;;;;;;;146.52;55.33;;;15.80;95.50;;;;;;5015232;28;20025;-84
2021/09/24 05:41:29;;;;;;;126.80;52.00;;;15.80;95.50;;;;;;5015616;28;20053;-84
2021/09/24 05:43:54;;;;;;;133.93;52.50;;;15.80;95.50;;;;;;5015485;28;20121;-85
2021/09/24 05:46:20;;;;;;;196.32;56.45;;;15.80;95.60;;;;;;5016599;28;20033;-84
2021/09/24 05:48:47;;;;;;;145.30;56.20;;;15.80;95.60;;;;;;5017493;28;20421;-85
2021/09/24 05:51:12;;;;;;;138.85;56.80;;;15.80;96.00;;;;;;5030084;28;20036;-85
2021/09/24 05:53:38;;;;;;;157.73;56.47;;;15.90;95.80;;;;;;5018946;28;20455;-84
2021/09/24 05:56:09;;;;;;;149.30;56.47;;;15.90;95.80;;;;;;5016520;28;20136;-83
2021/09/24 05:58:35;;;;;;;153.52;54.75;;;15.90;95.90;;;;;;5017006;28;20034;-85
2021/09/24 06:01:00;;;;;;;111.80;46.75;;;15.90;95.90;;;;;;5016016;28;20040;-85
2021/09/24 06:03:26;;;;;;;107.90;48.25;;;16.00;95.90;;;;;;5017254;28;20029;-84
2021/09/24 06:05:54;;;;;;;117.68;51.08;;;16.00;95.90;;;;;;5015510;28;20080;-86
2021/09/24 06:08:23;;;;;;;125.30;56.67;;;16.10;96.00;;;;;;5015125;28;20026;-83
2021/09/24 06:10:49;;;;;;;136.48;53.83;;;16.10;96.00;;;;;;5015635;28;20017;-84
2021/09/24 06:13:14;;;;;;;154.23;58.08;;;16.10;96.00;;;;;;5015330;28;20471;-85
2021/09/24 06:15:40;;;;;;;127.80;51.35;;;16.20;96.00;;;;;;5014667;28;20032;-84
2021/09/24 06:18:07;;;;;;;156.13;58.65;;;16.20;95.90;;;;;;5015735;28;20036;-84
2021/09/24 06:20:33;;;;;;;132.70;56.90;;;16.20;95.90;;;;;;5015399;28;20065;-84
2021/09/24 06:22:58;;;;;;;144.52;58.13;;;16.20;95.80;;;;;;5013998;28;20018;-84
2021/09/24 06:25:24;;;;;;;132.93;55.35;;;16.20;95.90;;;;;;5015882;28;20467;-85
2021/09/24 06:27:50;;;;;;;104.40;47.03;;;16.30;95.80;;;;;;5026854;28;20049;-83
2021/09/24 06:30:21;;;;;;;128.88;53.97;;;16.30;95.80;;;;;;5030300;28;20034;-84
2021/09/24 06:32:48;;;;;;;124.50;54.83;;;16.30;95.40;;;;;;5036870;28;20093;-83
2021/09/24 06:35:13;;;;;;;115.53;49.55;;;16.30;95.50;;;;;;5037126;28;20053;-84
2021/09/24 06:37:40;;;;;;;137.90;55.30;;;16.30;95.70;;;;;;5036600;28;20026;-83
2021/09/24 06:40:07;;;;;;;129.50;54.28;;;16.40;95.80;;;;;;5018917;28;20052;-84
2021/09/24 06:42:36;;;;;;;114.95;50.45;;;16.30;95.60;;;;;;5014437;28;20079;-85
2021/09/24 06:45:03;;;;;;;119.35;51.47;;;16.30;95.30;;;;;;5014000;28;20045;-84
2021/09/24 06:47:30;;;;;;;103.57;46.65;;;16.40;95.70;;;;;;5021973;28;20053;-83
2021/09/24 06:49:56;;;;;;;92.57;43.92;;;16.40;95.50;;;;;;5021907;28;20026;-85
2021/09/24 06:52:23;;;;;;;65.07;34.22;;;16.30;94.80;;;;;;5015218;28;20026;-85
2021/09/24 06:54:49;;;;;;;101.00;45.97;;;16.30;94.60;;;;;;5014549;28;20426;-85
2021/09/24 06:57:15;;;;;;;103.88;45.13;;;16.40;94.90;;;;;;5017186;28;20040;-84
2021/09/24 06:59:40;;;;;;;104.18;47.90;;;16.40;94.40;;;;;;5023072;28;20033;-84
2021/09/24 07:02:07;;;;;;;106.85;49.60;;;16.40;94.90;;;;;;5034919;28;20034;-85
2021/09/24 07:04:32;;;;;;;87.45;41.58;;;16.40;95.30;;;;;;5033571;28;20370;-84
2021/09/24 07:06:58;;;;;;;102.25;46.97;;;16.40;95.00;;;;;;5013759;28;20057;-84
2021/09/24 07:09:23;;;;;;;78.15;40.35;;;16.40;95.20;;;;;;5013880;28;20466;-84
2021/09/24 07:11:50;;;;;;;91.55;43.75;;;16.50;95.00;;;;;;5014070;28;20029;-85
2021/09/24 07:14:18;;;;;;;92.32;44.75;;;16.50;95.10;;;;;;5013444;28;20041;-85
2021/09/24 07:16:44;;;;;;;71.75;38.03;;;16.50;95.30;;;;;;5014362;28;20370;-84
2021/09/24 07:19:10;;;;;;;63.42;30.13;;;16.50;95.10;;;;;;5014755;28;20037;-84
2021/09/24 07:21:36;;;;;;;84.68;42.33;;;16.50;94.10;;;;;;5014217;28;20029;-85
2021/09/24 07:24:03;;;;;;;84.60;44.30;;;16.50;94.80;;;;;;5014391;28;20022;-85
2021/09/24 07:26:29;;;;;;;86.22;45.80;;;16.60;95.10;;;;;;5023094;28;20034;-82
2021/09/24 07:28:55;;;;;;;93.22;45.42;;;16.60;95.20;;;;;;5026443;28;20022;-83
2021/09/24 07:31:21;;;;;;;77.05;41.90;;;16.50;95.20;;;;;;5013331;28;20025;-84
2021/09/24 07:33:48;;;;;;;86.07;44.88;;;16.60;94.90;;;;;;5013676;28;20029;-84
2021/09/24 07:36:16;;;;;;;62.83;34.33;;;16.60;94.20;;;;;;5014185;28;20026;-84
2021/09/24 07:38:44;;;;;;;81.28;40.92;;;16.60;94.30;;;;;;5013219;28;20022;-85
2021/09/24 07:41:14;;;;;;;56.35;30.90;;;16.60;94.50;;;;;;5019340;28;20057;-85
2021/09/24 07:43:40;;;;;;;73.10;37.55;;;16.60;93.30;;;;;;5014790;28;20467;-85
2021/09/24 07:46:05;;;;;;;75.57;39.58;;;16.70;93.20;;;;;;5014761;28;20026;-82
2021/09/24 07:48:32;;;;;;;65.70;35.30;;;16.70;92.90;;;;;;5016179;28;20081;-89
2021/09/24 07:50:58;;;;;;;61.17;33.78;;;16.70;93.50;;;;;;4997959;28;20030;-82
2021/09/24 07:53:23;;;;;;;50.90;28.42;;;16.60;93.70;;;;;;5013468;28;20017;-83
2021/09/24 07:55:49;;;;;;;64.88;36.22;;;16.70;92.80;;;;;;5014153;28;20096;-79
2021/09/24 07:58:15;;;;;;;58.58;33.40;;;16.70;92.10;;;;;;4996403;28;20034;-79
2021/09/24 08:00:41;;;;;;;68.07;36.50;;;16.80;92.90;;;;;;5013385;28;20105;-84
2021/09/24 08:03:06;;;;;;;73.72;39.80;;;16.80;93.00;;;;;;5013978;28;20022;-88
2021/09/24 08:05:33;;;;;;;63.17;33.30;;;16.90;92.80;;;;;;5013915;28;20448;-84
2021/09/24 08:07:59;;;;;;;93.80;47.65;;;16.90;93.70;;;;;;5015532;28;20041;-83
2021/09/24 08:10:25;;;;;;;76.63;37.92;;;16.90;92.80;;;;;;5014101;28;20041;-81
2021/09/24 08:12:52;;;;;;;77.15;40.75;;;16.90;92.80;;;;;;5014670;28;20026;-81
2021/09/24 08:15:18;;;;;;;77.05;37.97;;;16.90;92.50;;;;;;5015217;28;20036;-89
2021/09/24 08:17:44;;;;;;;90.07;45.53;;;16.90;91.80;;;;;;5017884;28;20112;-82
2021/09/24 08:20:12;;;;;;;67.80;35.45;;;16.90;92.70;;;;;;5011446;28;20109;-84
2021/09/24 08:22:38;;;;;;;54.80;28.85;;;17.00;92.90;;;;;;5036247;28;20037;-84
2021/09/24 08:25:15;;;;;;;90.30;44.80;;;17.00;92.80;;;;;;5036213;28;20053;-86
2021/09/24 08:27:42;;;;;;;74.47;38.33;;;17.10;92.00;;;;;;5040584;28;20022;-86
2021/09/24 08:30:11;;;;;;;83.22;37.78;;;17.10;90.80;;;;;;5031597;28;20029;-85
2021/09/24 08:32:40;;;;;;;46.20;24.13;;;17.10;91.30;;;;;;5017720;28;20092;-85
2021/09/24 08:35:09;;;;;;;82.35;42.17;;;17.10;90.90;;;;;;5016571;28;20029;-86
2021/09/24 08:37:36;;;;;;;76.47;36.70;;;17.20;91.90;;;;;;5018687;28;20028;-86
2021/09/24 08:40:03;;;;;;;83.72;42.20;;;17.20;91.60;;;;;;5016700;28;20026;-84
2021/09/24 08:42:28;;;;;;;92.97;46.20;;;17.20;91.50;;;;;;5018827;28;20428;-86
2021/09/24 08:44:54;;;;;;;103.60;49.50;;;17.20;92.90;;;;;;5018092;28;20026;-84
2021/09/24 08:47:20;;;;;;;67.75;35.13;;;17.30;91.90;;;;;;5021202;28;20018;-86
2021/09/24 08:49:46;;;;;;;59.28;31.40;;;17.20;91.70;;;;;;5033597;28;20025;-85
2021/09/24 08:52:13;;;;;;;73.47;37.00;;;17.30;91.60;;;;;;5035521;28;20030;-85
2021/09/24 08:54:40;;;;;;;92.35;48.72;;;17.40;92.20;;;;;;5026519;28;20058;-85
2021/09/24 08:57:10;;;;;;;60.45;33.13;;;17.50;92.90;;;;;;5018770;28;20042;-85
2021/09/24 08:59:36;;;;;;;76.28;40.42;;;17.50;91.70;;;;;;5017628;28;20037;-86
2021/09/24 09:02:05;;;;;;;90.93;45.17;;;17.50;92.30;;;;;;5015734;28;20441;-86
2021/09/24 09:04:35;;;;;;;84.95;43.25;;;17.60;91.50;;;;;;5017607;28;20022;-86
2021/09/24 09:07:13;;;;;;;64.55;34.25;;;17.70;91.70;;;;;;5016473;28;20491;-82
2021/09/24 09:09:45;;;;;;;59.92;34.58;;;17.80;90.40;;;;;;5016301;28;20022;-84
2021/09/24 09:12:25;;;;;;;60.63;36.53;;;17.90;88.00;;;;;;5016001;28;20025;-81
2021/09/24 09:15:10;;;;;;;47.20;27.48;;;17.90;89.40;;;;;;5018841;28;20355;-85
2021/09/24 09:17:38;;;;;;;43.58;24.13;;;18.00;87.40;;;;;;5024815;28;20025;-80
2021/09/24 09:20:13;;;;;;;75.18;41.10;;;18.10;85.90;;;;;;5015485;28;20032;-81
2021/09/24 09:22:40;;;;;;;70.97;42.67;;;18.20;90.10;;;;;;5015638;28;20025;-78
2021/09/24 09:25:13;;;;;;;63.03;35.10;;;18.40;90.80;;;;;;5016850;28;20032;-79
2021/09/24 09:27:45;;;;;;;51.40;32.53;;;18.60;88.90;;;;;;5017744;28;20030;-83
2021/09/24 09:30:11;;;;;;;54.00;32.08;;;18.70;88.50;;;;;;5025397;28;20108;-79
2021/09/24 09:33:08;;;;;;;52.80;32.72;;;18.90;88.80;;;;;;5016529;28;20092;-81
2021/09/24 09:35:43;;;;;;;56.30;34.65;;;19.00;88.90;;;;;;5016366;28;20471;-79
2021/09/24 09:38:33;;;;;;;45.58;25.77;;;19.10;88.60;;;;;;5014773;28;20467;-78
2021/09/24 09:41:02;;;;;;;53.58;34.65;;;19.10;86.30;;;;;;5014884;28;20080;-79
2021/09/24 09:43:42;;;;;;;45.20;29.77;;;19.10;87.20;;;;;;5014508;28;20032;-81
2021/09/24 09:46:16;;;;;;;54.10;32.10;;;19.10;86.50;;;;;;5015055;28;20069;-79
2021/09/24 09:48:45;;;;;;;42.03;29.23;;;19.10;87.00;;;;;;5015780;28;20113;-80
2021/09/24 09:51:20;;;;;;;43.65;29.48;;;19.00;87.50;;;;;;5014586;28;20025;-80
2021/09/24 09:53:49;;;;;;;47.47;30.75;;;19.00;87.50;;;;;;5015006;28;20032;-80
2021/09/24 09:56:18;;;;;;;48.55;31.35;;;19.00;88.20;;;;;;5015089;28;20030;-79
2021/09/24 09:58:45;;;;;;;38.13;26.48;;;19.00;87.70;;;;;;5014904;28;20025;-80
2021/09/24 10:01:15;;;;;;;46.13;27.98;;;19.10;88.60;;;;;;5014218;28;20018;-80
2021/09/24 10:03:52;;;;;;;40.28;29.00;;;19.20;86.10;;;;;;5015693;28;20386;-80
2021/09/24 10:06:40;;;;;;;31.48;23.52;;;19.40;87.00;;;;;;5015852;28;20041;-80
2021/09/24 10:09:06;;;;;;;27.35;18.98;;;19.60;86.60;;;;;;5014745;28;20068;-80
2021/09/24 10:11:40;;;;;;;28.88;22.70;;;19.80;83.40;;;;;;5021045;28;20034;-76
2021/09/24 10:14:13;;;;;;;28.17;21.35;;;19.90;82.10;;;;;;5036388;28;20032;-81
2021/09/24 10:16:48;;;;;;;28.27;21.25;;;19.90;82.50;;;;;;5034093;28;20032;-79
2021/09/24 10:19:16;;;;;;;28.48;21.00;;;20.00;83.00;;;;;;5033435;28;20033;-80
2021/09/24 10:21:42;;;;;;;31.27;21.52;;;20.20;82.80;;;;;;5022488;28;20045;-78
2021/09/24 10:24:08;;;;;;;25.33;17.67;;;20.30;81.60;;;;;;5015682;28;20053;-80
2021/09/24 10:26:37;;;;;;;27.55;20.17;;;20.40;80.60;;;;;;5013904;28;20589;-79
2021/09/24 10:29:16;;;;;;;26.65;21.20;;;20.60;81.20;;;;;;5013648;28;20030;-78
2021/09/24 10:31:48;;;;;;;27.20;18.97;;;20.70;80.50;;;;;;5014165;28;20119;-79
2021/09/24 10:34:16;;;;;;;23.98;19.05;;;21.00;79.30;;;;;;5013955;28;20296;-79
2021/09/24 10:37:09;;;;;;;23.90;16.70;;;21.10;78.70;;;;;;5016637;28;20033;-80
2021/09/24 10:39:36;;;;;;;22.15;17.83;;;21.10;76.80;;;;;;5025053;28;20045;-77
2021/09/24 10:42:17;;;;;;;18.60;13.82;;;21.20;76.70;;;;;;5018080;28;20041;-79
2021/09/24 10:44:56;;;;;;;20.23;17.88;;;21.30;75.70;;;;;;5013421;28;20030;-80
2021/09/24 10:47:47;;;;;;;19.35;15.90;;;21.30;75.80;;;;;;5013252;28;20041;-79
2021/09/24 10:50:30;;;;;;;;;;;21.30;75.90;;;;;;5015081;28;20080;-79
2021/09/24 10:53:09;;;;;;;20.58;16.92;;;21.30;75.50;;;;;;5013907;28;19928;-78
2021/09/24 10:55:58;;;;;;;20.67;15.80;;;21.40;75.30;;;;;;5013737;28;20099;-79
2021/09/24 10:58:26;;;;;;;22.58;16.48;;;21.30;75.20;;;;;;5010034;28;20079;-79
2021/09/24 11:01:11;;;;;;;16.38;12.55;;;21.20;75.20;;;;;;5012896;28;20079;-79
2021/09/24 11:03:55;;;;;;;20.38;15.23;;;21.30;75.30;;;;;;5012834;28;20109;-79
2021/09/24 11:06:40;;;;;;;17.13;12.23;;;21.50;74.10;;;;;;5012487;28;20037;-79
2021/09/24 11:09:10;;;;;;;21.05;15.02;;;21.80;73.60;;;;;;5012531;28;20121;-78
2021/09/24 11:11:39;;;;;;;17.50;12.65;;;21.90;73.60;;;;;;5012814;28;20022;-79
2021/09/24 11:14:27;;;;;;;21.30;16.25;;;21.70;73.90;;;;;;5013745;28;20053;-78
2021/09/24 11:16:54;;;;;;;18.75;15.82;;;21.70;72.80;;;;;;5013317;28;20018;-78
2021/09/24 11:19:43;;;;;;;22.88;16.25;;;21.70;73.50;;;;;;5013593;28;20036;-79
2021/09/24 11:22:13;;;;;;;17.63;13.40;;;21.60;73.20;;;;;;5013250;28;20478;-79
2021/09/24 11:24:42;;;;;;;17.20;11.48;;;21.50;73.60;;;;;;5013804;28;20461;-78
2021/09/24 11:27:11;;;;;;;17.88;13.65;;;21.50;74.30;;;;;;5014839;28;20034;-77
2021/09/24 11:29:42;;;;;;;18.15;13.20;;;21.80;73.60;;;;;;5014183;28;20049;-79
2021/09/24 11:32:10;;;;;;;18.33;15.13;;;22.00;72.20;;;;;;5015218;28;20050;-78
2021/09/24 11:34:39;;;;;;;18.95;14.05;;;22.00;72.10;;;;;;5014298;28;20048;-78
2021/09/24 11:37:21;;;;;;;11.60;8.32;;;22.00;72.00;;;;;;5019127;28;20046;-79
2021/09/24 11:40:13;;;;;;;24.50;18.20;;;22.00;73.40;;;;;;5015830;28;20071;-79
2021/09/24 11:42:42;;;;;;;19.48;14.88;;;21.90;71.20;;;;;;5012807;28;20022;-79
2021/09/24 11:45:18;;;;;;;20.65;16.40;;;21.70;72.60;;;;;;5012288;28;20475;-79
2021/09/24 11:47:54;;;;;;;18.67;15.05;;;21.70;72.60;;;;;;5012743;28;20026;-78
2021/09/24 11:50:20;;;;;;;20.85;16.52;;;21.70;72.60;;;;;;5013831;28;20095;-79
2021/09/24 11:52:54;;;;;;;18.10;14.18;;;21.90;72.10;;;;;;5012855;28;20053;-78
2021/09/24 11:55:31;;;;;;;23.92;16.67;;;22.10;71.40;;;;;;5012865;28;20033;-78
2021/09/24 11:58:02;;;;;;;21.67;17.38;;;22.10;70.50;;;;;;5013257;28;20394;-79
2021/09/24 12:00:30;;;;;;;24.33;17.30;;;22.00;71.50;;;;;;5016720;28;20032;-78
2021/09/24 12:03:17;;;;;;;25.23;20.20;;;22.00;71.60;;;;;;5021442;28;20113;-78
2021/09/24 12:05:57;;;;;;;27.77;18.02;;;22.00;70.80;;;;;;5035389;28;20029;-81
2021/09/24 12:08:48;;;;;;;24.10;18.48;;;22.10;71.60;;;;;;5032638;28;20010;-78
2021/09/24 12:11:26;;;;;;;28.27;21.35;;;22.20;71.70;;;;;;5026421;28;20018;-78
2021/09/24 12:13:57;;;;;;;27.55;22.58;;;22.30;70.10;;;;;;5018570;28;20112;-78
2021/09/24 12:16:25;;;;;;;27.65;21.33;;;22.40;69.60;;;;;;5016645;28;20479;-79
2021/09/24 12:18:56;;;;;;;20.27;16.80;;;22.60;69.50;;;;;;5017880;28;20022;-79
2021/09/24 12:21:48;;;;;;;26.67;20.85;;;22.60;70.20;;;;;;5016372;28;20501;-79
2021/09/24 12:24:29;;;;;;;28.67;20.58;;;22.60;70.20;;;;;;5011607;28;20034;-78
2021/09/24 12:27:24;;;;;;;24.15;17.48;;;22.60;70.80;;;;;;5023738;28;20088;-77
2021/09/24 12:29:51;;;;;;;23.48;20.60;;;22.60;70.70;;;;;;5032144;28;20044;-82
2021/09/24 12:32:23;;;;;;;23.42;18.20;;;22.40;69.40;;;;;;5031112;28;20013;-81
2021/09/24 12:35:04;;;;;;;19.73;14.20;;;22.20;69.50;;;;;;5018301;28;20101;-83